createdAt,value
2023-07-28T00:00:56.413Z,18.01
2023-07-28T00:03:23.211Z,18.01
2023-07-28T00:05:50.322Z,17.98
2023-07-28T00:08:17.357Z,17.94
2023-07-28T00:10:44.216Z,17.98
2023-07-28T00:13:11.070Z,17.95
2023-07-28T00:15:37.914Z,17.93
2023-07-28T00:18:04.741Z,17.86
2023-07-28T00:20:31.523Z,17.92
2023-07-28T00:22:58.418Z,17.92
2023-07-28T00:25:25.229Z,17.92
2023-07-28T00:27:52.075Z,17.95
2023-07-28T00:30:18.907Z,17.94
2023-07-28T00:32:45.702Z,17.92
2023-07-28T00:35:12.421Z,17.94
2023-07-28T00:37:39.200Z,17.90
2023-07-28T00:40:06.464Z,17.92
2023-07-28T00:42:34.760Z,17.88
2023-07-28T00:45:02.685Z,17.90
2023-07-28T00:47:29.749Z,17.90
2023-07-28T00:49:56.899Z,17.84
2023-07-28T00:52:23.631Z,17.79
2023-07-28T00:54:50.392Z,17.79
2023-07-28T00:57:19.091Z,17.72
2023-07-28T00:59:48.846Z,17.75
2023-07-28T01:02:18.020Z,17.70
2023-07-28T01:04:44.922Z,17.70
2023-07-28T01:07:17.164Z,17.70
2023-07-28T01:10:08.084Z,17.63
2023-07-28T01:12:34.862Z,17.63
2023-07-28T01:15:01.669Z,17.69
2023-07-28T01:17:28.880Z,17.66
2023-07-28T01:19:55.764Z,17.63
2023-07-28T01:22:51.648Z,17.63
2023-07-28T01:25:36.521Z,17.63
2023-07-28T01:28:04.808Z,17.62
2023-07-28T01:30:31.685Z,17.62
2023-07-28T01:32:58.955Z,17.58
2023-07-28T01:35:27.244Z,17.58
2023-07-28T01:37:54.249Z,17.54
2023-07-28T01:40:21.783Z,17.49
2023-07-28T01:42:48.596Z,17.42
2023-07-28T01:45:15.409Z,17.44
2023-07-28T01:47:42.143Z,17.27
2023-07-28T01:50:09.130Z,17.23
2023-07-28T01:52:36.021Z,17.17
2023-07-28T01:55:02.785Z,17.16
2023-07-28T01:57:29.596Z,17.04
2023-07-28T01:59:56.565Z,17.03
2023-07-28T02:02:23.399Z,16.94
2023-07-28T02:04:50.092Z,16.97
2023-07-28T02:07:16.876Z,16.86
2023-07-28T02:09:43.813Z,16.83
2023-07-28T02:12:10.532Z,16.76
2023-07-28T02:14:37.303Z,16.85
2023-07-28T02:17:04.158Z,16.72
2023-07-28T02:19:30.894Z,16.74
2023-07-28T02:21:57.609Z,16.67
2023-07-28T02:24:24.364Z,16.64
2023-07-28T02:26:51.069Z,16.56
2023-07-28T02:31:51.166Z,16.62
2023-07-28T02:34:17.917Z,16.67
2023-07-28T02:36:44.802Z,16.63
2023-07-28T02:39:11.516Z,16.65
2023-07-28T02:41:38.452Z,16.65
2023-07-28T02:44:05.200Z,16.63
2023-07-28T02:46:31.993Z,16.68
2023-07-28T02:48:58.731Z,16.73
2023-07-28T02:53:58.346Z,16.74
2023-07-28T02:56:25.060Z,16.74
2023-07-28T02:58:51.935Z,16.76
2023-07-28T03:01:18.867Z,16.87
2023-07-28T03:03:47.194Z,16.94
2023-07-28T03:06:13.984Z,16.95
2023-07-28T03:08:40.707Z,16.99
2023-07-28T03:11:07.435Z,16.95
2023-07-28T03:13:34.195Z,17.03
2023-07-28T03:16:01.026Z,17.05
2023-07-28T03:18:27.870Z,17.09
2023-07-28T03:20:54.827Z,17.10
2023-07-28T03:25:55.229Z,17.02
2023-07-28T03:28:22.152Z,17.02
2023-07-28T03:30:48.957Z,16.95
2023-07-28T03:33:15.682Z,16.95
2023-07-28T03:38:20.799Z,16.99
2023-07-28T03:40:47.558Z,16.96
2023-07-28T03:43:14.478Z,16.99
2023-07-28T03:45:41.258Z,16.96
2023-07-28T03:48:08.542Z,16.93
2023-07-28T03:50:35.311Z,17.01
2023-07-28T03:53:02.076Z,17.07
2023-07-28T03:55:28.758Z,16.98
2023-07-28T03:57:55.486Z,17.00
2023-07-28T04:00:22.193Z,16.95
2023-07-28T04:02:49.007Z,16.96
2023-07-28T04:05:15.878Z,16.94
2023-07-28T04:07:42.640Z,16.90
2023-07-28T04:10:09.613Z,16.99
2023-07-28T04:12:36.338Z,16.93
2023-07-28T04:15:03.122Z,16.95
2023-07-28T04:17:29.955Z,17.03
2023-07-28T04:19:56.730Z,17.01
2023-07-28T04:22:23.492Z,16.99
2023-07-28T04:24:50.289Z,17.04
2023-07-28T04:27:17.258Z,17.12
2023-07-28T04:29:44.043Z,17.14
2023-07-28T04:32:10.781Z,17.17
2023-07-28T04:34:37.537Z,17.17
2023-07-28T04:37:04.495Z,17.15
2023-07-28T04:39:31.243Z,17.14
2023-07-28T04:41:57.987Z,17.13
2023-07-28T04:47:02.454Z,17.20
2023-07-28T04:49:29.207Z,17.22
2023-07-28T04:51:55.930Z,17.28
2023-07-28T04:54:22.671Z,17.29
2023-07-28T04:56:51.235Z,17.28
2023-07-28T04:59:18.057Z,17.28
2023-07-28T05:01:44.788Z,17.26
2023-07-28T05:04:11.686Z,17.25
2023-07-28T05:06:38.581Z,17.24
2023-07-28T05:09:05.354Z,17.25
2023-07-28T05:11:32.333Z,17.25
2023-07-28T05:13:59.273Z,17.24
2023-07-28T05:16:26.254Z,17.22
2023-07-28T05:18:52.943Z,17.18
2023-07-28T05:21:19.753Z,17.28
2023-07-28T05:26:17.877Z,17.28
2023-07-28T05:28:44.680Z,17.29
2023-07-28T05:31:11.445Z,17.31
2023-07-28T05:33:41.080Z,17.25
2023-07-28T05:36:07.847Z,17.27
2023-07-28T05:38:34.978Z,17.27
2023-07-28T05:41:04.635Z,17.26
2023-07-28T05:43:32.061Z,17.28
2023-07-28T05:45:59.874Z,17.28
2023-07-28T05:48:27.040Z,17.33
2023-07-28T05:50:54.950Z,17.36
2023-07-28T05:53:22.793Z,17.36
2023-07-28T05:55:50.114Z,17.43
2023-07-28T05:58:16.905Z,17.42
2023-07-28T06:00:43.764Z,17.46
2023-07-28T06:03:13.650Z,17.48
2023-07-28T06:05:41.821Z,17.46
2023-07-28T06:08:08.851Z,17.47
2023-07-28T06:10:36.392Z,17.45
2023-07-28T06:13:03.173Z,17.52
2023-07-28T06:15:30.163Z,17.48
2023-07-28T06:17:57.006Z,17.43
2023-07-28T06:20:23.959Z,17.46
2023-07-28T06:22:50.772Z,17.44
2023-07-28T06:25:17.646Z,17.33
2023-07-28T06:27:44.488Z,17.41
2023-07-28T06:30:11.821Z,17.38
2023-07-28T06:32:38.631Z,17.43
2023-07-28T06:35:06.608Z,17.45
2023-07-28T06:37:33.627Z,17.45
2023-07-28T06:40:00.782Z,17.49
2023-07-28T06:42:27.798Z,17.50
2023-07-28T06:44:54.569Z,17.53
2023-07-28T06:47:21.278Z,17.55
2023-07-28T06:49:48.075Z,17.59
2023-07-28T06:52:14.887Z,17.58
2023-07-28T06:54:41.686Z,17.58
2023-07-28T06:57:08.481Z,17.57
2023-07-28T06:59:35.234Z,17.61
2023-07-28T07:02:02.075Z,17.60
2023-07-28T07:04:28.905Z,17.66
2023-07-28T07:06:55.689Z,17.74
2023-07-28T07:09:22.396Z,17.75
2023-07-28T07:11:49.168Z,17.81
2023-07-28T07:14:16.094Z,17.89
2023-07-28T07:16:43.162Z,17.94
2023-07-28T07:19:12.571Z,18.06
2023-07-28T07:21:39.306Z,18.05
2023-07-28T07:24:06.513Z,18.06
2023-07-28T07:26:33.308Z,18.03
2023-07-28T07:29:00.132Z,18.03
2023-07-28T07:31:26.880Z,17.99
2023-07-28T07:33:53.903Z,18.04
2023-07-28T07:36:21.213Z,18.08
2023-07-28T07:38:48.172Z,18.04
2023-07-28T07:41:21.450Z,18.07
2023-07-28T07:43:49.716Z,18.16
2023-07-28T07:46:17.754Z,18.25
2023-07-28T07:48:44.584Z,18.30
2023-07-28T07:51:12.236Z,18.45
2023-07-28T07:53:39.258Z,18.52
2023-07-28T07:56:06.824Z,18.51
2023-07-28T07:58:34.261Z,18.48
2023-07-28T08:01:01.205Z,18.42
2023-07-28T08:03:28.554Z,18.47
2023-07-28T08:08:28.736Z,18.50
2023-07-28T08:10:56.077Z,18.52
2023-07-28T08:13:23.286Z,18.66
2023-07-28T08:15:50.357Z,18.67
2023-07-28T08:18:17.165Z,18.71
2023-07-28T08:20:43.964Z,18.73
2023-07-28T08:23:10.683Z,18.72
2023-07-28T08:25:37.817Z,18.71
2023-07-28T08:28:05.547Z,18.70
2023-07-28T08:30:33.460Z,18.68
2023-07-28T08:33:00.853Z,18.71
2023-07-28T08:35:27.796Z,18.74
2023-07-28T08:37:54.601Z,18.86
2023-07-28T08:40:21.647Z,18.94
2023-07-28T08:42:49.106Z,18.98
2023-07-28T08:45:15.915Z,19.05
2023-07-28T08:47:43.482Z,19.15
2023-07-28T08:50:10.681Z,19.28
2023-07-28T08:52:37.546Z,19.32
2023-07-28T08:55:04.468Z,19.29
2023-07-28T08:57:31.164Z,19.26
2023-07-28T08:59:58.162Z,19.17
2023-07-28T09:02:25.007Z,19.15
2023-07-28T09:04:51.770Z,19.08
2023-07-28T09:07:18.617Z,19.06
2023-07-28T09:09:45.399Z,19.05
2023-07-28T09:12:12.416Z,19.02
2023-07-28T09:14:39.892Z,19.06
2023-07-28T09:17:11.935Z,19.09
2023-07-28T09:19:53.097Z,19.14
2023-07-28T09:22:23.104Z,19.24
2023-07-28T09:24:50.913Z,19.36
2023-07-28T09:27:25.916Z,19.51
2023-07-28T09:29:54.065Z,19.76
2023-07-28T09:32:33.290Z,19.99
2023-07-28T09:37:54.413Z,20.25
2023-07-28T09:40:22.922Z,20.40
2023-07-28T09:42:53.604Z,20.60
2023-07-28T09:45:37.131Z,21.10
2023-07-28T09:48:11.047Z,21.71
2023-07-28T09:50:40.217Z,22.17
2023-07-28T09:53:10.476Z,22.37
2023-07-28T09:55:41.368Z,22.27
2023-07-28T09:58:11.450Z,22.18
2023-07-28T10:00:38.720Z,22.23
2023-07-28T10:05:46.038Z,22.08
2023-07-28T10:08:13.709Z,21.91
2023-07-28T10:10:42.991Z,21.69
2023-07-28T10:13:21.083Z,21.56
2023-07-28T10:15:49.298Z,21.45
2023-07-28T10:18:16.036Z,21.41
2023-07-28T10:20:50.540Z,21.33
2023-07-28T10:23:24.920Z,21.25
2023-07-28T10:26:03.241Z,21.16
2023-07-28T10:28:33.357Z,21.11
2023-07-28T10:31:01.284Z,21.11
2023-07-28T10:33:37.968Z,21.13
2023-07-28T10:39:05.850Z,21.06
2023-07-28T10:41:36.593Z,20.98
2023-07-28T10:44:03.638Z,20.96
2023-07-28T10:46:30.712Z,20.94
2023-07-28T10:48:57.478Z,20.91
2023-07-28T10:51:34.613Z,20.84
2023-07-28T10:54:04.144Z,20.76
2023-07-28T10:56:31.106Z,20.69
2023-07-28T10:59:05.577Z,20.71
2023-07-28T11:01:35.266Z,20.73
2023-07-28T11:04:13.450Z,20.76
2023-07-28T11:06:43.988Z,20.73
2023-07-28T11:09:11.296Z,20.76
2023-07-28T11:11:45.534Z,20.77
2023-07-28T11:14:16.823Z,20.72
2023-07-28T11:16:43.944Z,20.73
2023-07-28T11:19:13.498Z,20.70
2023-07-28T11:24:21.232Z,20.81
2023-07-28T11:26:48.173Z,20.84
2023-07-28T11:29:15.085Z,20.95
2023-07-28T11:34:20.749Z,21.29
2023-07-28T11:36:47.923Z,21.56
2023-07-28T11:39:15.586Z,21.77
2023-07-28T11:41:43.192Z,22.06
2023-07-28T11:44:10.188Z,22.37
2023-07-28T11:46:42.354Z,22.62
2023-07-28T11:49:15.660Z,22.80
2023-07-28T11:51:48.073Z,22.91
2023-07-28T11:54:16.769Z,23.19
2023-07-28T11:56:45.026Z,23.46
2023-07-28T11:59:12.998Z,23.54
2023-07-28T12:07:10.691Z,23.44
2023-07-28T12:20:49.227Z,22.96
2023-07-28T12:25:54.729Z,22.66
2023-07-28T12:28:22.022Z,22.47
2023-07-28T12:30:53.906Z,22.41
2023-07-28T12:33:22.708Z,22.29
2023-07-28T12:35:51.068Z,22.18
2023-07-28T12:48:25.786Z,21.85
2023-07-28T12:51:03.858Z,21.74
2023-07-28T12:53:30.816Z,21.75
2023-07-28T12:56:01.018Z,21.73
2023-07-28T13:03:30.348Z,21.68
2023-07-28T13:05:57.184Z,21.67
2023-07-28T13:13:23.232Z,21.70
2023-07-28T13:15:50.021Z,21.65
2023-07-28T13:18:16.787Z,21.68
2023-07-28T13:20:43.547Z,21.69
2023-07-28T13:23:10.301Z,21.65
2023-07-28T13:25:37.057Z,21.69
2023-07-28T13:28:03.903Z,21.75
2023-07-28T13:30:30.695Z,21.59
2023-07-28T13:32:57.775Z,21.61
2023-07-28T13:37:57.331Z,21.53
2023-07-28T13:40:24.086Z,21.48
2023-07-28T13:42:50.878Z,21.54
2023-07-28T13:45:17.675Z,21.53
2023-07-28T13:47:44.517Z,21.39
2023-07-28T13:50:11.314Z,21.24
2023-07-28T13:52:38.127Z,21.10
2023-07-28T13:57:43.449Z,20.83
2023-07-28T14:00:10.864Z,20.73
2023-07-28T14:02:38.753Z,20.57
2023-07-28T14:05:06.992Z,20.47
2023-07-28T14:07:35.180Z,20.38
2023-07-28T14:10:04.780Z,20.35
2023-07-28T14:12:33.914Z,20.25
2023-07-28T14:15:00.723Z,20.18
2023-07-28T14:17:27.451Z,20.14
2023-07-28T14:19:54.231Z,19.98
2023-07-28T14:22:20.936Z,19.98
2023-07-28T14:24:47.673Z,19.88
2023-07-28T14:27:14.531Z,19.87
2023-07-28T14:29:41.257Z,19.56
2023-07-28T14:32:09.199Z,19.67
2023-07-28T14:34:36.064Z,19.71
2023-07-28T14:37:09.356Z,19.71
2023-07-28T14:39:36.128Z,19.75
2023-07-28T14:42:02.839Z,19.82
2023-07-28T14:44:29.981Z,19.86
2023-07-28T14:46:56.873Z,19.91
2023-07-28T14:49:24.251Z,19.91
2023-07-28T14:54:22.224Z,19.86
2023-07-28T14:56:49.069Z,19.89
2023-07-28T14:59:16.899Z,19.81
2023-07-28T15:01:43.639Z,19.78
2023-07-28T15:04:12.460Z,19.73
2023-07-28T15:06:39.198Z,19.73
2023-07-28T15:09:05.983Z,19.75
2023-07-28T15:11:33.978Z,19.80
2023-07-28T15:14:01.050Z,19.84
2023-07-28T15:16:27.789Z,19.84
2023-07-28T15:18:55.559Z,19.84
2023-07-28T15:21:23.129Z,19.84
2023-07-28T15:23:55.390Z,19.83
2023-07-28T15:26:22.341Z,19.78
2023-07-28T15:28:49.097Z,19.83
2023-07-28T15:31:15.868Z,19.77
2023-07-28T15:33:42.635Z,19.74
2023-07-28T15:36:09.460Z,19.74
2023-07-28T15:38:36.218Z,19.75
2023-07-28T15:41:02.946Z,19.86
2023-07-28T15:43:29.700Z,19.95
2023-07-28T15:45:56.748Z,20.02
2023-07-28T15:48:23.825Z,19.99
2023-07-28T15:53:23.902Z,19.99
2023-07-28T15:55:50.676Z,19.96
2023-07-28T15:58:17.768Z,19.94
2023-07-28T16:00:46.352Z,19.91
2023-07-28T16:03:13.602Z,19.82
2023-07-28T16:05:40.873Z,19.78
2023-07-28T16:08:07.877Z,19.75
2023-07-28T16:10:34.656Z,19.72
2023-07-28T16:13:01.513Z,19.75
2023-07-28T16:15:28.319Z,19.79
2023-07-28T16:17:55.359Z,19.85
2023-07-28T16:20:22.420Z,19.87
2023-07-28T16:22:49.148Z,19.90
2023-07-28T16:27:49.102Z,19.88
2023-07-28T16:30:15.947Z,19.92
2023-07-28T16:32:43.142Z,19.94
2023-07-28T16:37:41.119Z,19.95
2023-07-28T16:40:08.571Z,19.84
2023-07-28T16:42:35.294Z,19.85
2023-07-28T16:45:02.678Z,19.90
2023-07-28T16:47:30.091Z,19.92
2023-07-28T16:49:59.448Z,19.96
2023-07-28T16:52:28.244Z,19.91
2023-07-28T16:54:56.393Z,19.94
2023-07-28T16:57:23.181Z,19.93
2023-07-28T16:59:49.890Z,19.87
2023-07-28T17:02:16.618Z,19.90
2023-07-28T17:04:43.379Z,19.88
2023-07-28T17:07:10.119Z,19.85
2023-07-28T17:09:37.122Z,19.88
2023-07-28T17:12:04.152Z,19.84
2023-07-28T17:14:30.870Z,19.83
2023-07-28T17:16:57.643Z,19.84
2023-07-28T17:19:24.359Z,19.84
2023-07-28T17:21:51.061Z,19.81
2023-07-28T17:24:17.876Z,19.81
2023-07-28T17:26:44.643Z,19.84
2023-07-28T17:29:13.081Z,19.84
2023-07-28T17:31:41.800Z,19.81
2023-07-28T17:34:08.584Z,19.78
2023-07-28T17:36:35.324Z,19.82
2023-07-28T17:39:02.076Z,19.84
2023-07-28T17:44:05.823Z,19.74
2023-07-28T17:46:32.657Z,19.74
2023-07-28T17:48:59.405Z,19.77
2023-07-28T17:51:26.172Z,19.72
2023-07-28T17:53:52.979Z,19.74
2023-07-28T17:56:19.787Z,19.76
2023-07-28T17:58:46.562Z,19.75
2023-07-28T18:01:13.365Z,19.77
2023-07-28T18:03:40.202Z,19.73
2023-07-28T18:06:07.010Z,19.67
2023-07-28T18:08:33.799Z,19.64
2023-07-28T18:11:00.865Z,19.60
2023-07-28T18:13:27.677Z,19.64
2023-07-28T18:15:54.512Z,19.68
2023-07-28T18:18:21.358Z,19.68
2023-07-28T18:20:48.249Z,19.68
2023-07-28T18:23:14.963Z,19.63
2023-07-28T18:25:41.765Z,19.60
2023-07-28T18:28:08.544Z,19.58
2023-07-28T18:30:35.495Z,19.58
2023-07-28T18:33:02.334Z,19.56
2023-07-28T18:35:29.253Z,19.55
2023-07-28T18:37:55.975Z,19.55
2023-07-28T18:42:56.121Z,19.46
2023-07-28T18:45:22.904Z,19.43
2023-07-28T18:47:49.657Z,19.37
2023-07-28T18:50:16.526Z,19.33
2023-07-28T18:52:43.246Z,19.29
2023-07-28T18:55:10.121Z,19.30
2023-07-28T18:57:36.853Z,19.34
2023-07-28T19:00:05.929Z,19.33
2023-07-28T19:02:32.710Z,19.32
2023-07-28T19:04:59.424Z,19.32
2023-07-28T19:07:26.321Z,19.30
2023-07-28T19:09:53.044Z,19.25
2023-07-28T19:14:58.234Z,19.29
2023-07-28T19:17:25.104Z,19.31
2023-07-28T19:22:25.367Z,19.27
2023-07-28T19:24:52.106Z,19.28
2023-07-28T19:27:19.888Z,19.27
2023-07-28T19:29:46.659Z,19.28
2023-07-28T19:32:13.411Z,19.34
2023-07-28T19:34:40.160Z,19.33
2023-07-28T19:37:07.411Z,19.34
2023-07-28T19:39:34.942Z,19.33
2023-07-28T19:42:01.663Z,19.32
2023-07-28T19:44:39.993Z,19.31
2023-07-28T19:47:08.126Z,19.33
2023-07-28T19:49:34.860Z,19.31
2023-07-28T19:52:01.598Z,19.25
2023-07-28T19:54:31.045Z,19.24
2023-07-28T19:56:57.969Z,19.22
2023-07-28T19:59:26.252Z,19.23
2023-07-28T20:01:53.188Z,19.17
2023-07-28T20:04:20.385Z,19.22
2023-07-28T20:06:47.098Z,19.20
2023-07-28T20:09:13.925Z,19.22
2023-07-28T20:11:40.629Z,19.23
2023-07-28T20:14:07.397Z,19.24
2023-07-28T20:16:34.614Z,19.22
2023-07-28T20:19:01.721Z,19.17
2023-07-28T20:21:28.466Z,19.15
2023-07-28T20:23:55.249Z,19.10
2023-07-28T20:28:53.309Z,19.07
2023-07-28T20:31:21.166Z,19.03
2023-07-28T20:33:47.947Z,19.04
2023-07-28T20:36:15.750Z,19.03
2023-07-28T20:38:42.505Z,18.96
2023-07-28T20:41:10.522Z,18.94
2023-07-28T20:43:37.314Z,18.89
2023-07-28T20:46:04.163Z,18.87
2023-07-28T20:48:31.069Z,18.82
2023-07-28T20:50:57.935Z,18.86
2023-07-28T20:53:24.776Z,18.84
2023-07-28T20:55:52.174Z,18.77
2023-07-28T20:58:19.075Z,18.72
2023-07-28T21:00:45.948Z,18.69
2023-07-28T21:03:12.928Z,18.64
2023-07-28T21:05:41.584Z,18.68
2023-07-28T21:08:10.699Z,18.62
2023-07-28T21:10:37.603Z,18.55
2023-07-28T21:13:07.894Z,18.62
2023-07-28T21:15:36.109Z,18.51
2023-07-28T21:18:03.002Z,18.64
2023-07-28T21:20:29.847Z,18.58
2023-07-28T21:22:56.605Z,18.59
2023-07-28T21:25:23.314Z,18.57
2023-07-28T21:27:50.058Z,18.58
2023-07-28T21:30:16.842Z,18.48
2023-07-28T21:32:43.674Z,18.52
2023-07-28T21:35:10.997Z,18.45
2023-07-28T21:37:37.960Z,18.45
2023-07-28T21:40:05.836Z,18.43
2023-07-28T21:42:32.553Z,18.44
2023-07-28T21:44:59.290Z,18.40
2023-07-28T21:47:27.283Z,18.36
2023-07-28T21:49:54.657Z,18.33
2023-07-28T21:52:21.459Z,18.28
2023-07-28T21:54:48.123Z,18.33
2023-07-28T21:57:14.861Z,18.27
2023-07-28T21:59:41.630Z,18.33
2023-07-28T22:02:10.434Z,18.31
2023-07-28T22:07:09.027Z,18.17
2023-07-28T22:09:35.840Z,18.21
2023-07-28T22:12:02.587Z,18.14
2023-07-28T22:14:31.836Z,18.10
2023-07-28T22:16:58.604Z,18.12
2023-07-28T22:21:56.601Z,18.19
2023-07-28T22:24:23.376Z,18.14
2023-07-28T22:26:50.060Z,18.08
2023-07-28T22:29:16.772Z,18.05
2023-07-28T22:31:43.811Z,18.08
2023-07-28T22:34:10.538Z,18.02
2023-07-28T22:36:37.501Z,18.06
2023-07-28T22:39:04.751Z,18.04
2023-07-28T22:41:31.476Z,17.99
2023-07-28T22:43:58.198Z,17.97
2023-07-28T22:46:25.358Z,17.97
2023-07-28T22:48:52.099Z,17.97
2023-07-28T22:51:18.835Z,17.98
2023-07-28T22:53:45.610Z,17.97
2023-07-28T22:56:12.377Z,17.94
2023-07-28T22:58:39.135Z,17.99
2023-07-28T23:01:06.965Z,17.98
2023-07-28T23:03:33.779Z,18.02
2023-07-28T23:06:00.753Z,18.02
2023-07-28T23:08:28.298Z,18.05
2023-07-28T23:10:55.053Z,18.04
2023-07-28T23:13:23.017Z,18.08
2023-07-28T23:15:50.613Z,18.03
2023-07-28T23:18:17.365Z,18.04
2023-07-28T23:20:44.069Z,18.09
2023-07-28T23:23:10.803Z,18.11
2023-07-28T23:25:38.020Z,18.11
2023-07-28T23:28:05.111Z,18.06
2023-07-28T23:30:31.868Z,18.06
2023-07-28T23:32:58.683Z,18.06
2023-07-28T23:35:25.401Z,18.16
2023-07-28T23:37:52.715Z,18.14
2023-07-28T23:40:19.535Z,18.13
2023-07-28T23:42:46.265Z,18.05
2023-07-28T23:45:13.047Z,18.01
2023-07-28T23:47:39.738Z,18.00
2023-07-28T23:50:06.905Z,17.97
2023-07-28T23:52:33.598Z,17.94
2023-07-28T23:55:00.354Z,17.90
2023-07-28T23:57:27.113Z,17.92
2023-07-28T23:59:53.862Z,17.95
